Baileyville, IL (61007)

10:41 AM CDT on June 25, 2018 (GMT -0500)
Freeport South | | Change Station
Active Advisory: Flood Advisory Active Notice: Flood Advisory

Elev 846 ft 42.26 °N, 89.60 °W | Updated 16 seconds ago

Partly Cloudy
Partly Cloudy
73.9 °F
Feels Like 74 °F
N
11
Wind Variable Wind from ENE
Gusts 14.0 mph

Today
High -- | Low -- °F
--% Chance of Precip.
Yesterday
High -- | Low -- °F
Precip. -- in
Pressure 30.15 in
Visibility 10.0 miles
Clouds Scattered Clouds 1900 ft
Heat Index 74 °F
Dew Point 68 °F
Humidity 81%
Rainfall 0.00 in
Snow Depth Not available.
5:23 AM 8:38 PM
Waxing Gibbous, 94% visible
METAR KFEP 251535Z AUTO 08010KT 10SM SCT019 22/18 A3015 RMK AO2 T02180175
Pressure 30.15 in
Visibility 10.0 miles
Clouds Scattered Clouds 1900 ft
Heat Index 74 °F
Dew Point 68 °F
Humidity 81%
Rainfall 0.00 in
Snow Depth Not available.
5:23 AM 8:38 PM
Waxing Gibbous, 94% visible
METAR KFEP 251535Z AUTO 08010KT 10SM SCT019 22/18 A3015 RMK AO2 T02180175

Get Your Daily Forecast Email!

Thanks for signing up!

Be on the lookout for a verification email in your inbox.

You'll start receiving severe weather alerts in your inbox..

×

10-Day Weather Forecast

Almanac

Astronomy

Jun. 25, 2018 Rise Set
Actual Time
Civil Twilight
Nautical Twilight
Astronomical Twilight
Moon
Length of Visible Light
Length of Day
Tomorrow will be .
, % of the Moon is Illuminated

Today's Extremes

State Highs State Lows

Community

WunderPhotos

Category 6

Welcome to Category 6. This is the collective home for Weather Underground's featured writeups by Dr. Jeff Masters (right), Bob Henson (left), Chris Burt, and other regular contributors.

Nearby

Air Quality

  Air Quality AQ Index Pollutant
Not available.

Snow Depth

Station Depth Elevation

Earthquake Activity

City Distance Mag. Time & Date
Minimum magnitude displayed is 2.5.

Coastal Water Temperatures

Place Temperature

Stations

Nearby Weather Stations

Station Location Temp. Windchill Dew Point Humidity Wind Precip. Elev Updated Type
                   

Watches & Warnings

Flood Advisory
Issued: 10:24 AM CDT Jun. 25, 2018 – National Weather Service

The flood advisory continues for
the Rock River at Byron
* until Thursday afternoon.
* At 1015 am Monday the stage was 11.7 feet.
* Action stage is 10.5 feet.
* Flood stage is 13.0 feet.
* Forecast... the river will remain near 11.7 feet through this
afternoon.


Lat... Lon 4211 8937 4224 8915 4222 8905 4207 8927
      4193 8933 4196 8942